Time;durP1;ratioP1;P1;durP2;ratioP2;P2;SDS_P1;SDS_P2;PMS_P1;PMS_P2;Temp;Humidity;BMP_temperature;BMP_pressure;BME280_temperature;BME280_humidity;BME280_pressure;Samples;Min_cycle;Max_cycle;Signal;HPM_P1;HPM_P2
2023/05/31 00:01:05;;;;;;;0.00;0.00;;;;;;;13.87;61.00;101492.31;6144622;23;20005;-74
2023/05/31 00:03:31;;;;;;;0.00;0.00;;;;;;;13.86;61.03;101490.69;6115665;23;20085;-77
2023/05/31 00:05:56;;;;;;;0.00;0.00;;;;;;;13.78;60.92;101490.06;6139636;23;20010;-73
2023/05/31 00:09:04;;;;;;;0.00;0.00;;;;;;;13.76;61.20;101492.22;6143608;23;20029;-76
2023/05/31 00:11:30;;;;;;;0.00;0.00;;;;;;;13.68;60.74;101473.47;6139287;23;20092;-73
2023/05/31 00:13:55;;;;;;;0.00;0.00;;;;;;;13.66;60.63;101492.13;6269500;22;20033;-75
2023/05/31 00:16:21;;;;;;;0.00;0.00;;;;;;;13.59;61.00;101486.88;6246394;22;20005;-73
2023/05/31 00:18:46;;;;;;;0.00;0.00;;;;;;;13.54;60.76;101483.25;6145169;23;20005;-74
2023/05/31 00:21:12;;;;;;;0.00;0.00;;;;;;;13.54;60.74;101484.06;6112679;22;20505;-74
2023/05/31 00:23:37;;;;;;;0.00;0.00;;;;;;;13.62;61.06;101491.00;6142610;23;20433;-73
2023/05/31 00:26:03;;;;;;;0.00;0.00;;;;;;;13.55;61.10;101484.88;6242919;22;20016;-73
2023/05/31 00:28:28;;;;;;;0.00;0.00;;;;;;;13.63;61.13;101498.16;6272531;22;20059;-73
2023/05/31 00:30:54;;;;;;;0.00;0.00;;;;;;;13.59;60.70;101497.00;6141496;23;20063;-73
2023/05/31 00:33:19;;;;;;;0.00;0.00;;;;;;;13.53;61.25;101492.56;6247252;22;20013;-73
2023/05/31 00:35:45;;;;;;;0.00;0.00;;;;;;;13.50;61.42;101498.59;6142254;23;20032;-73
2023/05/31 00:38:11;;;;;;;0.00;0.00;;;;;;;13.50;61.01;101495.84;6113406;23;20748;-74
2023/05/31 00:40:36;;;;;;;0.00;0.00;;;;;;;13.47;60.92;101493.59;6144082;23;20009;-74
2023/05/31 00:43:01;;;;;;;0.00;0.00;;;;;;;13.39;61.05;101484.75;6267834;22;20078;-74
2023/05/31 00:45:28;;;;;;;0.00;0.00;;;;;;;13.43;61.52;101488.63;6141207;23;20021;-74
2023/05/31 00:47:54;;;;;;;0.00;0.00;;;;;;;13.49;61.80;101497.75;6139299;23;20014;-73
2023/05/31 00:50:20;;;;;;;0.00;0.00;;;;;;;13.57;61.33;101488.22;6145155;23;20010;-73
2023/05/31 00:52:49;;;;;;;0.00;0.00;;;;;;;13.57;60.96;101499.19;6271408;22;20032;-71
2023/05/31 00:55:16;;;;;;;0.00;0.00;;;;;;;13.58;61.28;101498.09;6137923;23;20072;-72
2023/05/31 00:57:44;;;;;;;0.00;0.00;;;;;;;13.39;61.05;101468.25;6142265;23;20013;-72
2023/05/31 01:00:10;;;;;;;0.00;0.00;;;;;;;13.54;61.26;101486.81;6140418;23;20005;-72
2023/05/31 01:02:37;;;;;;;0.00;0.00;;;;;;;13.52;61.11;101485.41;6141799;23;20010;-74
2023/05/31 01:05:21;;;;;;;0.00;0.00;;;;;;;13.38;61.03;101463.84;6144060;23;20021;-75
2023/05/31 01:07:46;;;;;;;0.00;0.00;;;;;;;13.49;61.38;101466.69;6143049;23;20051;-72
2023/05/31 01:10:13;;;;;;;0.00;0.00;;;;;;;13.55;61.05;101469.25;6142072;23;20013;-72
2023/05/31 01:12:51;;;;;;;0.00;0.00;;;;;;;13.55;60.61;101465.63;6134600;23;20021;-71
2023/05/31 01:15:21;;;;;;;0.00;0.00;;;;;;;13.51;61.13;101481.00;6149193;23;20023;-72
2023/05/31 01:17:50;;;;;;;0.00;0.00;;;;;;;13.40;61.31;101483.66;6145168;23;20225;-71
2023/05/31 01:20:17;;;;;;;0.00;0.00;;;;;;;13.28;61.63;101474.69;6148814;23;20008;-71
2023/05/31 01:23:01;;;;;;;0.00;0.00;;;;;;;13.24;61.77;101484.53;6142697;23;20008;-71
2023/05/31 01:26:05;;;;;;;0.00;0.00;;;;;;;13.19;62.44;101481.75;6143188;23;20002;-73
2023/05/31 01:28:35;;;;;;;0.00;0.00;;;;;;;13.15;62.80;101475.09;6164704;22;20440;-74
2023/05/31 01:31:04;;;;;;;0.00;0.00;;;;;;;13.14;62.75;101467.94;6139046;23;20080;-73
2023/05/31 01:33:30;;;;;;;0.00;0.00;;;;;;;13.17;63.18;101476.50;6142465;23;19998;-74
2023/05/31 01:35:56;;;;;;;0.00;0.00;;;;;;;13.15;62.88;101475.09;6138391;23;20325;-74
2023/05/31 01:38:21;;;;;;;0.00;0.00;;;;;;;13.15;63.35;101480.59;6141488;23;20006;-75
2023/05/31 01:40:48;;;;;;;0.00;0.00;;;;;;;13.17;63.08;101473.78;6140695;23;20002;-72
2023/05/31 01:43:14;;;;;;;0.00;0.00;;;;;;;13.20;62.52;101472.41;6135324;23;20071;-73
2023/05/31 01:45:40;;;;;;;0.00;0.00;;;;;;;13.19;62.63;101462.53;6274870;22;20398;-71
2023/05/31 01:48:08;;;;;;;0.00;0.00;;;;;;;13.17;62.53;101462.78;6089924;23;20450;-70
2023/05/31 01:50:35;;;;;;;0.00;0.00;;;;;;;13.22;62.08;101481.22;6117599;23;20066;-71
2023/05/31 01:53:01;;;;;;;0.00;0.00;;;;;;;13.18;62.32;101469.91;6139072;23;20032;-70
2023/05/31 01:55:27;;;;;;;0.00;0.00;;;;;;;13.04;62.37;101447.53;6117173;23;20005;-72
2023/05/31 01:57:55;;;;;;;0.00;0.00;;;;;;;13.20;62.34;101465.00;6071046;23;20016;-71
2023/05/31 02:00:22;;;;;;;0.00;0.00;;;;;;;13.16;61.96;101461.13;6090747;23;20109;-72
2023/05/31 02:02:48;;;;;;;0.00;0.00;;;;;;;13.15;61.66;101470.44;6144122;23;20328;-72
2023/05/31 02:05:13;;;;;;;0.00;0.00;;;;;;;13.10;61.85;101468.47;6141406;23;20005;-71
2023/05/31 02:07:43;;;;;;;0.00;0.00;;;;;;;13.05;62.51;101460.19;6143292;23;20020;-71
2023/05/31 02:10:09;;;;;;;0.00;0.00;;;;;;;13.02;61.76;101454.38;6146022;23;20097;-70
2023/05/31 02:12:35;;;;;;;0.00;0.00;;;;;;;12.98;62.33;101459.56;6137923;23;20029;-70
2023/05/31 02:15:01;;;;;;;0.00;0.00;;;;;;;12.93;62.17;101451.25;6145239;23;20269;-69
2023/05/31 02:17:28;;;;;;;0.00;0.00;;;;;;;12.99;62.42;101460.38;6139685;23;20001;-71
2023/05/31 02:19:54;;;;;;;0.00;0.00;;;;;;;12.95;62.40;101449.06;6144884;23;20010;-71
2023/05/31 02:22:20;;;;;;;0.00;0.00;;;;;;;13.00;62.55;101457.38;6140786;23;20029;-71
2023/05/31 02:24:46;;;;;;;0.00;0.00;;;;;;;12.97;61.79;101449.66;6117825;23;20354;-71
2023/05/31 02:27:12;;;;;;;0.00;0.00;;;;;;;12.98;62.12;101453.22;6120588;23;20036;-70
2023/05/31 02:29:38;;;;;;;0.00;0.00;;;;;;;12.99;61.70;101452.94;6114333;23;20100;-71
2023/05/31 02:32:04;;;;;;;0.00;0.00;;;;;;;13.05;62.22;101454.69;6116332;23;20039;-71
2023/05/31 02:34:30;;;;;;;0.00;0.00;;;;;;;13.03;61.73;101445.88;6114514;23;20785;-71
2023/05/31 02:36:56;;;;;;;0.00;0.00;;;;;;;13.09;61.77;101453.06;6118209;23;20006;-70
2023/05/31 02:39:21;;;;;;;0.00;0.00;;;;;;;13.07;61.82;101441.53;6141207;23;20008;-70
2023/05/31 02:41:47;;;;;;;0.00;0.00;;;;;;;13.06;61.50;101461.81;6117896;23;20013;-71
2023/05/31 02:44:13;;;;;;;0.00;0.00;;;;;;;13.04;62.06;101458.53;6117425;23;20036;-71
2023/05/31 02:46:39;;;;;;;0.00;0.00;;;;;;;13.00;62.12;101462.84;6138300;22;20336;-70
2023/05/31 02:49:06;;;;;;;0.00;0.00;;;;;;;12.98;61.98;101453.22;6117396;23;20030;-72
2023/05/31 02:51:31;;;;;;;0.00;0.00;;;;;;;12.95;62.34;101442.75;6240476;22;20344;-71
2023/05/31 02:53:57;;;;;;;0.00;0.00;;;;;;;12.96;62.45;101449.91;6143393;23;20010;-70
2023/05/31 02:56:23;;;;;;;0.00;0.00;;;;;;;13.01;62.04;101447.22;6143513;23;20793;-73
2023/05/31 02:58:48;;;;;;;0.00;0.00;;;;;;;13.04;61.92;101458.53;6214200;23;20028;-74
2023/05/31 03:01:14;;;;;;;0.00;0.00;;;;;;;13.02;61.86;101460.69;6143235;23;20043;-72
2023/05/31 03:03:40;;;;;;;0.00;0.00;;;;;;;12.97;62.20;101463.38;6240591;22;20009;-72
2023/05/31 03:06:06;;;;;;;0.00;0.00;;;;;;;12.92;62.00;101466.06;6144754;23;20005;-73
2023/05/31 03:08:31;;;;;;;0.00;0.00;;;;;;;12.87;62.89;101463.25;6144369;23;20009;-73
2023/05/31 03:10:57;;;;;;;0.00;0.00;;;;;;;12.81;62.38;101470.59;6114007;23;20100;-73
2023/05/31 03:13:22;;;;;;;0.00;0.00;;;;;;;12.75;62.95;101455.97;6147806;23;20013;-73
2023/05/31 03:15:48;;;;;;;0.00;0.00;;;;;;;12.75;62.79;101464.22;6142731;23;19998;-73
2023/05/31 03:18:13;;;;;;;0.00;0.00;;;;;;;12.70;62.93;101453.19;6142304;23;20067;-72
2023/05/31 03:20:39;;;;;;;0.00;0.00;;;;;;;12.72;62.59;101459.22;6142694;23;20009;-73
2023/05/31 03:23:06;;;;;;;0.00;0.00;;;;;;;12.69;63.08;101461.69;6139238;23;20013;-71
2023/05/31 03:25:32;;;;;;;0.00;0.00;;;;;;;12.64;63.33;101454.19;6141162;23;20017;-73
2023/05/31 03:27:57;;;;;;;0.00;0.00;;;;;;;12.67;63.58;101456.41;6240266;22;20024;-72
2023/05/31 03:30:22;;;;;;;0.00;0.00;;;;;;;12.63;63.70;101452.53;6141126;23;20729;-72
2023/05/31 03:32:48;;;;;;;0.00;0.00;;;;;;;12.58;63.67;101445.06;6088189;23;20021;-73
2023/05/31 03:35:14;;;;;;;0.00;0.00;;;;;;;12.64;63.94;101443.19;6091269;23;20013;-73
2023/05/31 03:37:39;;;;;;;0.00;0.00;;;;;;;12.67;63.97;101442.69;6140196;23;20367;-73
2023/05/31 03:40:05;;;;;;;0.00;0.00;;;;;;;12.67;64.21;101439.13;6111932;23;20368;-74
2023/05/31 03:42:31;;;;;;;0.00;0.00;;;;;;;12.68;63.71;101438.88;6142319;23;20033;-71
2023/05/31 03:44:57;;;;;;;0.00;0.00;;;;;;;12.65;64.12;101444.88;6112053;23;20035;-72
2023/05/31 03:47:22;;;;;;;0.00;0.00;;;;;;;12.64;64.16;101440.47;6193060;23;20408;-73
2023/05/31 03:49:48;;;;;;;0.00;0.00;;;;;;;12.62;64.28;101439.91;6092392;23;20385;-73
2023/05/31 03:52:13;;;;;;;0.00;0.00;;;;;;;12.61;64.34;101438.22;6240503;22;20104;-73
2023/05/31 03:54:39;;;;;;;0.00;0.00;;;;;;;12.68;64.97;101441.63;6218856;23;20055;-72
2023/05/31 03:57:05;;;;;;;0.00;0.00;;;;;;;12.68;64.51;101438.88;6241490;22;20033;-72
2023/05/31 03:59:31;;;;;;;0.00;0.00;;;;;;;12.65;64.68;101439.38;6246857;22;20005;-73
2023/05/31 04:01:56;;;;;;;0.00;0.00;;;;;;;12.62;65.34;101444.56;6113630;23;20028;-74
2023/05/31 04:04:22;;;;;;;0.00;0.00;;;;;;;12.50;65.20;101426.31;6144377;23;20008;-73
2023/05/31 04:06:47;;;;;;;0.00;0.00;;;;;;;12.57;65.48;101437.06;6219958;23;20020;-71
2023/05/31 04:09:13;;;;;;;0.00;0.00;;;;;;;12.63;65.62;101440.72;6216448;23;20009;-72
2023/05/31 04:11:38;;;;;;;0.03;0.03;;;;;;;12.66;66.03;101440.19;6117083;22;20055;-72
2023/05/31 04:14:03;;;;;;;0.00;0.00;;;;;;;12.66;65.62;101435.56;6111877;23;20010;-72
2023/05/31 04:16:29;;;;;;;0.00;0.00;;;;;;;12.61;65.47;101438.22;6220336;23;20062;-74
2023/05/31 04:18:54;;;;;;;0.00;0.00;;;;;;;12.54;65.52;101432.09;6113422;23;20013;-74
2023/05/31 04:21:20;;;;;;;0.00;0.00;;;;;;;12.61;65.78;101430.00;6142879;23;20041;-74
2023/05/31 04:23:46;;;;;;;0.00;0.00;;;;;;;12.61;65.49;101435.47;6118120;23;20018;-73
2023/05/31 04:26:16;;;;;;;0.00;0.00;;;;;;;12.58;65.01;101446.97;6112986;23;20010;-72
2023/05/31 04:28:43;;;;;;;0.00;0.00;;;;;;;12.59;65.28;101445.91;6142507;23;20008;-72
2023/05/31 04:31:10;;;;;;;0.00;0.00;;;;;;;12.65;65.16;101447.63;6139576;23;20093;-73
2023/05/31 04:33:35;;;;;;;0.00;0.00;;;;;;;12.61;64.86;101440.97;6142574;23;20009;-74
2023/05/31 04:36:03;;;;;;;0.00;0.00;;;;;;;12.55;64.26;101448.31;6088631;23;20016;-75
2023/05/31 04:38:30;;;;;;;0.00;0.00;;;;;;;12.58;64.77;101446.97;6122491;23;20017;-71
2023/05/31 04:40:57;;;;;;;0.00;0.00;;;;;;;12.62;64.52;101452.81;6118613;23;20014;-70
2023/05/31 04:43:24;;;;;;;0.00;0.00;;;;;;;12.62;64.32;101459.09;6139034;23;20012;-73
2023/05/31 04:45:50;;;;;;;0.00;0.00;;;;;;;12.61;63.92;101460.19;6143373;22;20092;-70
2023/05/31 04:48:16;;;;;;;0.00;0.00;;;;;;;12.73;63.17;101463.66;6242333;22;20012;-70
2023/05/31 04:50:42;;;;;;;0.00;0.00;;;;;;;12.75;62.92;101455.97;6117363;23;20014;-71
2023/05/31 04:53:07;;;;;;;0.00;0.00;;;;;;;12.81;62.60;101456.88;6113437;23;20020;-69
2023/05/31 04:55:33;;;;;;;0.00;0.00;;;;;;;12.90;62.14;101457.25;6092771;23;20031;-71
2023/05/31 04:57:58;;;;;;;0.00;0.00;;;;;;;12.95;61.61;101454.56;6142604;23;20017;-70
2023/05/31 05:00:24;;;;;;;0.00;0.00;;;;;;;12.98;61.71;101453.22;6218873;23;20013;-69
2023/05/31 05:02:49;;;;;;;0.00;0.00;;;;;;;12.98;61.80;101462.31;6116910;23;20010;-71
2023/05/31 05:05:15;;;;;;;0.00;0.00;;;;;;;12.96;61.74;101461.72;6114130;23;20009;-71
2023/05/31 05:07:41;;;;;;;0.00;0.00;;;;;;;12.92;61.44;101455.91;6143931;23;20092;-70
2023/05/31 05:10:07;;;;;;;0.00;0.00;;;;;;;12.92;60.85;101457.81;6215321;23;20045;-71
2023/05/31 05:12:32;;;;;;;0.00;0.00;;;;;;;12.93;61.48;101462.22;6222608;23;20013;-70
2023/05/31 05:14:57;;;;;;;0.00;0.00;;;;;;;12.95;61.15;101465.53;6143573;23;20421;-69
2023/05/31 05:17:23;;;;;;;0.00;0.00;;;;;;;13.04;60.68;101465.91;6246348;22;20014;-69
2023/05/31 05:19:48;;;;;;;0.00;0.00;;;;;;;13.07;60.70;101477.22;6115629;23;20448;-71
2023/05/31 05:22:14;;;;;;;0.00;0.00;;;;;;;13.16;61.04;101477.59;6246748;22;20002;-69
2023/05/31 05:24:39;;;;;;;0.00;0.00;;;;;;;13.23;60.86;101469.97;6138873;23;20031;-70
2023/05/31 05:27:06;;;;;;;0.00;0.00;;;;;;;13.24;60.66;101476.28;6143578;23;20006;-71
2023/05/31 05:29:31;;;;;;;0.00;0.00;;;;;;;13.26;60.65;101472.22;6138046;23;20032;-69
2023/05/31 05:31:57;;;;;;;0.00;0.00;;;;;;;13.25;60.96;101476.03;6143478;23;20017;-71
2023/05/31 05:34:22;;;;;;;0.00;0.00;;;;;;;13.16;61.53;101468.53;6113961;23;20438;-70
2023/05/31 05:36:47;;;;;;;0.00;0.00;;;;;;;13.21;61.09;101474.06;6144799;23;20017;-70
2023/05/31 05:39:13;;;;;;;0.00;0.00;;;;;;;13.26;61.36;101465.91;6118302;23;20062;-71
2023/05/31 05:41:38;;;;;;;0.00;0.00;;;;;;;13.29;61.74;101465.38;6114151;23;20016;-70
2023/05/31 05:44:04;;;;;;;0.00;0.00;;;;;;;13.35;61.79;101461.63;6144093;23;20005;-71
2023/05/31 05:46:29;;;;;;;0.00;0.00;;;;;;;13.34;62.12;101468.19;6215859;23;20140;-71
2023/05/31 05:48:55;;;;;;;0.00;0.00;;;;;;;13.34;62.25;101472.84;6118540;23;20009;-70
2023/05/31 05:51:20;;;;;;;0.00;0.00;;;;;;;13.23;62.65;101461.75;6242355;22;20037;-71
2023/05/31 05:53:46;;;;;;;0.00;0.00;;;;;;;13.24;62.77;101468.06;6118571;23;20028;-70
2023/05/31 05:56:13;;;;;;;0.00;0.00;;;;;;;13.23;62.93;101466.41;6145010;23;20091;-70
2023/05/31 05:58:38;;;;;;;0.00;0.00;;;;;;;13.28;62.79;101474.69;6140140;23;20005;-71
2023/05/31 06:01:04;;;;;;;0.00;0.00;;;;;;;13.39;62.60;101465.50;6096433;23;20013;-71
2023/05/31 06:03:30;;;;;;;0.00;0.00;;;;;;;13.62;62.04;101471.75;6241364;22;20012;-71
2023/05/31 06:05:55;;;;;;;0.00;0.00;;;;;;;13.82;61.49;101468.34;6124906;23;20093;-73
2023/05/31 06:08:21;;;;;;;0.00;0.00;;;;;;;13.95;61.13;101462.41;6140210;23;20082;-73
2023/05/31 06:10:46;;;;;;;0.00;0.00;;;;;;;14.10;61.07;101467.19;6093116;23;20067;-71
2023/05/31 06:13:15;;;;;;;0.00;0.00;;;;;;;14.21;60.91;101459.03;6116418;23;20017;-72
2023/05/31 06:15:41;;;;;;;0.00;0.00;;;;;;;14.26;60.82;101470.06;6117303;23;20013;-73
2023/05/31 06:18:06;;;;;;;0.00;0.00;;;;;;;14.18;60.31;101462.28;6144455;23;20010;-74
2023/05/31 06:20:31;;;;;;;0.00;0.00;;;;;;;14.17;60.43;101452.41;6143334;23;20005;-71
2023/05/31 06:22:57;;;;;;;0.00;0.00;;;;;;;14.13;60.32;101446.59;6139316;23;20154;-72
2023/05/31 06:25:22;;;;;;;0.00;0.00;;;;;;;14.23;59.84;101459.59;6143455;23;20058;-72
2023/05/31 06:27:48;;;;;;;0.00;0.00;;;;;;;14.32;59.96;101452.47;6139073;23;20013;-72
2023/05/31 06:30:14;;;;;;;0.00;0.00;;;;;;;14.43;59.71;101451.44;6216838;23;20023;-72
2023/05/31 06:32:39;;;;;;;0.00;0.00;;;;;;;14.52;59.51;101460.03;6113627;23;20016;-71
2023/05/31 06:35:06;;;;;;;0.00;0.00;;;;;;;14.59;59.04;101455.09;6142032;23;20008;-72
2023/05/31 06:37:31;;;;;;;0.00;0.00;;;;;;;14.59;58.83;101459.78;6115769;23;20037;-72
2023/05/31 06:39:57;;;;;;;0.00;0.00;;;;;;;14.60;58.36;101458.69;6140436;23;20010;-71
2023/05/31 06:42:23;;;;;;;0.00;0.00;;;;;;;14.59;58.25;101466.13;6143714;23;20028;-70
2023/05/31 06:44:48;;;;;;;0.00;0.00;;;;;;;14.51;58.27;101463.03;6089588;23;20820;-72
2023/05/31 06:47:14;;;;;;;0.00;0.00;;;;;;;14.48;57.99;101457.00;6197356;23;20513;-79
2023/05/31 06:49:39;;;;;;;0.00;0.00;;;;;;;14.55;57.88;101459.47;6192788;23;20340;-76
2023/05/31 06:52:06;;;;;;;0.00;0.00;;;;;;;14.55;57.81;101456.72;6093730;23;20020;-77
2023/05/31 06:54:35;;;;;;;0.00;0.00;;;;;;;14.51;57.82;101452.03;6247346;22;20001;-74
2023/05/31 06:57:01;;;;;;;0.00;0.00;;;;;;;14.48;57.54;101458.91;6116919;23;20450;-74
2023/05/31 06:59:26;;;;;;;0.00;0.00;;;;;;;14.40;57.73;101449.22;6145350;23;20029;-76
2023/05/31 07:01:53;;;;;;;0.00;0.00;;;;;;;14.47;58.25;101451.72;6218179;23;20013;-74
2023/05/31 07:04:19;;;;;;;0.00;0.00;;;;;;;14.61;57.48;101455.69;6095754;23;20009;-74
2023/05/31 07:06:45;;;;;;;0.00;0.00;;;;;;;14.77;56.85;101448.31;6217958;23;20045;-73
2023/05/31 07:09:10;;;;;;;0.00;0.00;;;;;;;15.06;56.64;101439.63;6111687;23;20444;-74
2023/05/31 07:11:39;;;;;;;0.00;0.00;;;;;;;15.33;55.84;101452.34;6114449;23;20387;-74
2023/05/31 07:14:04;;;;;;;0.00;0.00;;;;;;;15.50;55.29;101447.41;6117273;23;20105;-74
2023/05/31 07:16:30;;;;;;;0.00;0.00;;;;;;;15.53;54.91;101444.09;6222952;23;20426;-74
2023/05/31 07:18:56;;;;;;;0.00;0.00;;;;;;;15.61;54.63;101437.22;6089880;23;20010;-73
2023/05/31 07:21:22;;;;;;;0.00;0.00;;;;;;;15.53;54.30;101441.31;6117754;23;20084;-75
2023/05/31 07:23:47;;;;;;;0.00;0.00;;;;;;;15.57;54.41;101444.38;6222084;23;20558;-74
2023/05/31 07:26:14;;;;;;;0.00;0.00;;;;;;;15.67;54.18;101446.31;6113916;23;20017;-74
2023/05/31 07:28:40;;;;;;;0.00;0.00;;;;;;;15.82;53.59;101440.00;6219815;23;20379;-74
2023/05/31 07:31:05;;;;;;;0.00;0.00;;;;;;;15.94;53.14;101440.53;6220279;23;20024;-74
2023/05/31 07:33:30;;;;;;;0.00;0.00;;;;;;;16.05;53.07;101444.13;6145628;23;20462;-75
2023/05/31 07:36:00;;;;;;;0.00;0.00;;;;;;;16.15;52.94;101430.31;6220369;23;20088;-74
2023/05/31 07:38:25;;;;;;;0.00;0.00;;;;;;;16.30;52.73;101447.94;6119653;23;20009;-74
2023/05/31 07:40:51;;;;;;;0.00;0.00;;;;;;;16.29;52.62;101436.06;6249987;22;20012;-75
2023/05/31 07:43:20;;;;;;;0.00;0.00;;;;;;;16.38;52.44;101439.06;6115999;23;20009;-73
2023/05/31 07:45:46;;;;;;;0.00;0.00;;;;;;;16.35;52.17;101428.59;6096056;23;20013;-74
2023/05/31 07:48:11;;;;;;;0.00;0.00;;;;;;;16.42;51.63;101426.34;6052507;22;20893;-73
2023/05/31 07:50:37;;;;;;;0.00;0.00;;;;;;;16.47;51.84;101420.00;6043177;23;20490;-74
2023/05/31 07:53:02;;;;;;;0.00;0.00;;;;;;;16.51;51.63;101421.09;6063347;23;20036;-74
2023/05/31 07:55:30;;;;;;;0.00;0.00;;;;;;;16.56;51.48;101424.66;6090802;23;20060;-74
2023/05/31 07:57:56;;;;;;;0.00;0.00;;;;;;;16.80;51.02;101428.69;6066541;23;20292;-74
2023/05/31 08:00:23;;;;;;;0.00;0.00;;;;;;;17.10;50.75;101433.28;6088500;23;20147;-74
2023/05/31 08:02:49;;;;;;;0.00;0.00;;;;;;;17.41;50.14;101435.81;6085800;23;20089;-74
2023/05/31 08:05:14;;;;;;;0.00;0.00;;;;;;;17.63;49.46;101427.91;6086347;23;20041;-74
2023/05/31 08:07:40;;;;;;;0.00;0.00;;;;;;;17.56;48.31;101424.63;6089800;23;20014;-74
2023/05/31 08:10:06;;;;;;;0.00;0.00;;;;;;;17.67;48.49;101430.06;6038555;23;20014;-75
2023/05/31 08:12:31;;;;;;;0.00;0.00;;;;;;;17.85;48.54;101432.13;6089779;23;20009;-74
2023/05/31 08:14:57;;;;;;;0.00;0.00;;;;;;;17.96;48.27;101428.19;6042489;23;20397;-74
2023/05/31 08:17:22;;;;;;;0.00;0.00;;;;;;;18.07;48.34;101423.38;6062092;23;20067;-75
2023/05/31 08:19:48;;;;;;;0.00;0.00;;;;;;;18.17;48.13;101432.72;6066359;23;20010;-74
2023/05/31 08:22:13;;;;;;;0.00;0.00;;;;;;;18.34;47.85;101423.94;6090691;23;20020;-74
2023/05/31 08:24:39;;;;;;;0.00;0.00;;;;;;;18.60;47.36;101416.97;6063075;23;20084;-74
2023/05/31 08:27:05;;;;;;;0.00;0.00;;;;;;;18.91;46.33;101424.06;6067129;23;20014;-75
2023/05/31 08:29:30;;;;;;;0.00;0.00;;;;;;;18.98;45.99;101403.19;6061789;23;20014;-74
2023/05/31 08:31:56;;;;;;;0.00;0.00;;;;;;;19.34;45.49;101416.50;6089903;23;20032;-74
2023/05/31 08:34:21;;;;;;;0.00;0.00;;;;;;;19.61;45.43;101414.97;6085781;23;20336;-74
2023/05/31 08:36:47;;;;;;;0.00;0.00;;;;;;;19.84;44.03;101416.00;6067028;23;20014;-73
2023/05/31 08:39:13;;;;;;;0.00;0.00;;;;;;;19.36;44.29;101411.50;6089881;23;20437;-74
2023/05/31 08:42:02;;;;;;;0.00;0.00;;;;;;;19.11;44.57;101400.78;6037553;23;20010;-74
2023/05/31 08:44:29;;;;;;;0.00;0.00;;;;;;;19.10;44.80;101402.75;6086750;23;20073;-75
2023/05/31 08:47:08;;;;;;;0.00;0.00;;;;;;;19.29;44.63;101402.72;6095431;22;20395;-74
2023/05/31 08:49:36;;;;;;;0.00;0.00;;;;;;;19.77;43.95;101407.22;6109744;23;20013;-74
2023/05/31 08:52:01;;;;;;;0.00;0.00;;;;;;;20.32;43.34;101400.13;6115411;23;20033;-74
2023/05/31 08:54:28;;;;;;;0.00;0.00;;;;;;;20.89;42.38;101394.22;6115849;23;20081;-74
2023/05/31 08:56:53;;;;;;;0.00;0.00;;;;;;;20.88;41.46;101392.56;6061665;23;20010;-74
2023/05/31 08:59:19;;;;;;;0.00;0.00;;;;;;;20.87;41.38;101396.50;6089368;23;20266;-74
2023/05/31 09:01:49;;;;;;;0.00;0.00;;;;;;;21.09;41.44;101392.91;6084163;23;20177;-74
2023/05/31 09:04:15;;;;;;;0.00;0.00;;;;;;;21.45;41.19;101392.88;6090453;23;20014;-74
2023/05/31 09:06:41;;;;;;;0.00;0.00;;;;;;;21.71;40.28;101400.63;6111641;23;20436;-75
2023/05/31 09:09:09;;;;;;;0.00;0.00;;;;;;;21.64;39.97;101400.25;6114635;23;20101;-74
2023/05/31 09:11:39;;;;;;;0.00;0.00;;;;;;;21.56;40.31;101395.44;6090431;23;20010;-73
2023/05/31 09:14:05;;;;;;;0.00;0.00;;;;;;;21.75;40.58;101392.44;6112879;23;20567;-75
2023/05/31 09:16:30;;;;;;;0.00;0.00;;;;;;;21.71;40.06;101395.06;6115021;23;20005;-74
2023/05/31 09:19:02;;;;;;;0.00;0.00;;;;;;;21.79;39.90;101404.59;6110090;23;20369;-75
2023/05/31 09:21:28;;;;;;;0.00;0.00;;;;;;;22.01;39.61;101387.00;6114360;23;20006;-74
2023/05/31 09:23:55;;;;;;;0.00;0.00;;;;;;;22.56;39.61;101396.06;6114158;23;20094;-74
2023/05/31 09:26:21;;;;;;;0.00;0.00;;;;;;;23.13;37.73;101398.81;6109706;23;20018;-77
2023/05/31 09:28:54;;;;;;;0.00;0.00;;;;;;;23.46;36.79;101403.88;6089868;23;20142;-73
2023/05/31 09:31:19;;;;;;;0.00;0.00;;;;;;;23.03;36.94;101382.38;6110381;23;20461;-72
2023/05/31 09:33:50;;;;;;;0.00;0.00;;;;;;;22.74;38.00;101381.03;6089566;23;20010;-74
2023/05/31 09:36:27;;;;;;;0.00;0.00;;;;;;;22.79;38.04;101380.03;6088049;23;20029;-74
2023/05/31 09:39:03;;;;;;;0.00;0.00;;;;;;;22.88;37.57;101385.63;6113921;23;20009;-74
2023/05/31 09:41:30;;;;;;;0.00;0.00;;;;;;;22.51;38.33;101373.94;6088066;23;20033;-74
2023/05/31 09:43:55;;;;;;;0.00;0.00;;;;;;;22.28;38.82;101379.56;6114228;23;20010;-74
2023/05/31 09:46:21;;;;;;;0.00;0.00;;;;;;;22.25;39.05;101380.22;6088593;22;20032;-75
2023/05/31 09:49:03;;;;;;;0.00;0.00;;;;;;;22.41;38.57;101381.44;6094146;23;20018;-74
2023/05/31 09:51:32;;;;;;;0.00;0.00;;;;;;;22.42;38.50;101383.09;6088765;23;20063;-73
2023/05/31 09:53:59;;;;;;;0.00;0.00;;;;;;;22.46;38.43;101372.94;6218261;23;20466;-74
2023/05/31 09:56:27;;;;;;;0.00;0.00;;;;;;;23.26;37.92;101385.00;6138548;23;19997;-73
2023/05/31 09:58:56;;;;;;;0.00;0.00;;;;;;;24.29;36.86;101371.09;6094032;23;20163;-74
2023/05/31 10:01:22;;;;;;;0.00;0.00;;;;;;;24.69;35.65;101372.72;6143610;23;20447;-73
2023/05/31 10:03:49;;;;;;;0.00;0.00;;;;;;;24.36;35.29;101373.38;6091072;23;20018;-73
2023/05/31 10:06:16;;;;;;;0.00;0.00;;;;;;;24.08;35.60;101371.06;6120306;23;20076;-74
2023/05/31 10:08:43;;;;;;;0.00;0.00;;;;;;;24.78;35.99;101373.47;6090697;23;20013;-73
2023/05/31 10:11:12;;;;;;;0.00;0.00;;;;;;;26.00;32.97;101373.50;6094963;23;20013;-74
2023/05/31 10:13:43;;;;;;;0.00;0.00;;;;;;;26.17;32.79;101378.06;6190099;23;20013;-73
2023/05/31 10:16:10;;;;;;;0.00;0.00;;;;;;;26.73;32.15;101377.47;6146283;23;19998;-75
2023/05/31 10:18:46;;;;;;;0.00;0.00;;;;;;;29.85;29.75;101360.16;6140968;23;20012;-74
2023/05/31 10:21:22;;;;;;;0.00;0.00;;;;;;;32.51;24.98;101382.38;6143191;23;20005;-74
2023/05/31 10:23:54;;;;;;;0.00;0.00;;;;;;;33.56;24.85;101386.50;6119818;23;20375;-74
2023/05/31 10:26:22;;;;;;;0.00;0.00;;;;;;;37.44;21.12;101376.94;6115590;23;20005;-73
2023/05/31 10:29:10;;;;;;;0.00;0.00;;;;;;;41.02;18.19;101372.78;6219455;23;20041;-74
2023/05/31 10:31:49;;;;;;;0.00;0.00;;;;;;;41.25;16.02;101372.47;6117795;23;20040;-73
2023/05/31 10:34:23;;;;;;;0.00;0.00;;;;;;;39.66;16.26;101370.25;6116899;23;20056;-75
2023/05/31 10:36:51;;;;;;;0.00;0.00;;;;;;;35.80;19.14;101359.16;6142651;23;20033;-73
2023/05/31 10:39:38;;;;;;;0.00;0.00;;;;;;;32.50;22.55;101364.56;6244275;22;20043;-74
2023/05/31 10:42:14;;;;;;;0.00;0.00;;;;;;;31.84;23.89;101358.78;6119166;23;20024;-75
2023/05/31 10:44:50;;;;;;;0.00;0.00;;;;;;;31.49;23.82;101366.50;6112162;23;20006;-75
2023/05/31 10:47:21;;;;;;;0.00;0.00;;;;;;;32.57;23.71;101354.50;6116236;22;20113;-75
2023/05/31 10:49:49;;;;;;;0.00;0.00;;;;;;;34.37;21.75;101354.94;6115093;23;20361;-73
2023/05/31 10:52:16;;;;;;;0.00;0.00;;;;;;;36.59;20.68;101357.63;6249540;22;20104;-75
2023/05/31 10:54:41;;;;;;;0.00;0.00;;;;;;;40.06;17.65;101352.13;6140347;23;20004;-74
2023/05/31 10:57:07;;;;;;;0.00;0.00;;;;;;;42.13;15.22;101351.97;6246573;22;20029;-75
2023/05/31 10:59:42;;;;;;;0.00;0.00;;;;;;;43.42;14.94;101349.19;6222962;23;20062;-74
2023/05/31 11:02:09;;;;;;;0.00;0.00;;;;;;;44.03;14.01;101347.88;6242412;22;20058;-74
2023/05/31 11:04:37;;;;;;;0.00;0.00;;;;;;;45.12;13.67;101347.47;6144420;23;20155;-73
2023/05/31 11:07:17;;;;;;;0.00;0.00;;;;;;;46.29;13.34;101339.06;6239709;22;20033;-74
2023/05/31 11:10:03;;;;;;;0.00;0.00;;;;;;;46.38;12.21;101334.47;6118262;23;20009;-74
2023/05/31 11:12:33;;;;;;;0.00;0.00;;;;;;;45.06;12.77;101338.66;6118987;23;20474;-74
2023/05/31 11:15:00;;;;;;;0.00;0.00;;;;;;;44.26;13.20;101332.88;6143250;23;20025;-74
2023/05/31 11:17:28;;;;;;;0.00;0.00;;;;;;;43.56;13.29;101324.75;6120051;23;20013;-74
2023/05/31 11:19:54;;;;;;;0.00;0.00;;;;;;;43.29;13.91;101318.91;6120706;23;20332;-74
2023/05/31 11:22:24;;;;;;;0.00;0.00;;;;;;;44.21;13.69;101338.44;6117411;23;20010;-73
2023/05/31 11:24:52;;;;;;;0.00;0.00;;;;;;;44.11;12.76;101340.53;6121057;23;20040;-73